createdAt,value
2018-02-20T00:02:25.066Z,2.60
2018-02-20T00:04:53.306Z,1.70
2018-02-20T00:07:21.823Z,1.80
2018-02-20T00:09:50.106Z,1.90
2018-02-20T00:12:18.381Z,2.00
2018-02-20T00:14:46.682Z,1.90
2018-02-20T00:17:14.929Z,1.80
2018-02-20T00:19:43.190Z,1.90
2018-02-20T00:22:11.461Z,1.90
2018-02-20T00:24:39.720Z,2.00
2018-02-20T00:27:08.753Z,1.80
2018-02-20T00:29:37.015Z,1.80
2018-02-20T00:32:05.289Z,1.70
2018-02-20T00:34:33.525Z,1.90
2018-02-20T00:37:02.566Z,1.90
2018-02-20T00:39:30.893Z,1.90
2018-02-20T00:41:59.118Z,1.80
2018-02-20T00:44:27.344Z,1.80
2018-02-20T00:46:55.957Z,1.60
2018-02-20T00:49:24.209Z,1.40
2018-02-20T00:51:53.218Z,1.60
2018-02-20T00:54:22.287Z,1.60
2018-02-20T00:56:50.523Z,1.50
2018-02-20T00:59:18.774Z,1.60
2018-02-20T01:01:47.099Z,1.60
2018-02-20T01:04:15.353Z,1.80
2018-02-20T01:06:43.611Z,1.70
2018-02-20T01:09:11.959Z,1.80
2018-02-20T01:11:40.969Z,1.50
2018-02-20T01:14:09.238Z,4.70
2018-02-20T01:16:38.319Z,1.70
2018-02-20T01:19:07.349Z,1.70
2018-02-20T01:21:35.680Z,1.70
2018-02-20T01:24:03.926Z,1.80
2018-02-20T01:26:32.185Z,1.80
2018-02-20T01:29:00.456Z,1.70
2018-02-20T01:31:28.704Z,1.90
2018-02-20T01:33:57.711Z,2.10
2018-02-20T01:36:26.126Z,2.00
2018-02-20T01:38:54.401Z,2.10
2018-02-20T01:41:22.633Z,2.10
2018-02-20T01:43:50.896Z,2.10
2018-02-20T01:46:19.889Z,2.30
2018-02-20T01:48:48.190Z,2.30
2018-02-20T01:51:17.159Z,2.40
2018-02-20T01:53:46.180Z,2.00
2018-02-20T01:56:14.427Z,2.00
2018-02-20T01:58:43.542Z,2.00
2018-02-20T02:01:11.812Z,2.00
2018-02-20T02:03:40.069Z,2.20
2018-02-20T02:06:09.137Z,2.40
2018-02-20T02:08:37.418Z,2.40
2018-02-20T02:11:05.680Z,2.20
2018-02-20T02:13:33.992Z,2.10
2018-02-20T02:16:03.100Z,2.00
2018-02-20T02:18:31.432Z,2.00
2018-02-20T02:20:59.671Z,1.90
2018-02-20T02:23:28.702Z,1.90
2018-02-20T02:25:57.040Z,1.90
2018-02-20T02:28:25.321Z,1.80
2018-02-20T02:30:53.580Z,1.90
2018-02-20T02:33:21.866Z,1.90
2018-02-20T02:35:50.119Z,1.90
2018-02-20T02:38:18.432Z,1.70
2018-02-20T02:40:46.770Z,1.70
2018-02-20T02:43:15.793Z,1.60
2018-02-20T02:45:44.033Z,1.60
2018-02-20T02:48:13.223Z,1.70
2018-02-20T02:50:41.464Z,1.60
2018-02-20T02:53:09.699Z,1.70
2018-02-20T02:55:37.976Z,1.90
2018-02-20T02:58:06.197Z,1.80
2018-02-20T03:00:34.483Z,1.80
2018-02-20T03:03:02.715Z,1.60
2018-02-20T03:05:30.954Z,1.60
2018-02-20T03:08:00.003Z,1.70
2018-02-20T03:10:28.423Z,1.60
2018-02-20T03:12:57.461Z,1.50
2018-02-20T03:15:25.724Z,1.50
2018-02-20T03:17:53.992Z,1.80
2018-02-20T03:20:22.226Z,1.80
2018-02-20T03:22:50.443Z,1.80
2018-02-20T03:25:19.621Z,1.90
2018-02-20T03:27:48.647Z,1.60
2018-02-20T03:30:16.919Z,1.60
2018-02-20T03:32:45.211Z,2.00
2018-02-20T03:35:13.473Z,1.90
2018-02-20T03:37:41.710Z,1.90
2018-02-20T03:40:10.779Z,1.90
2018-02-20T03:42:39.034Z,1.80
2018-02-20T03:45:07.569Z,2.10
2018-02-20T03:47:35.979Z,2.10
2018-02-20T03:50:04.246Z,1.80
2018-02-20T03:52:32.539Z,1.80
2018-02-20T03:55:01.006Z,1.70
2018-02-20T03:57:29.262Z,1.80
2018-02-20T03:59:57.515Z,1.60
2018-02-20T04:02:25.881Z,1.50
2018-02-20T04:04:54.114Z,1.50
2018-02-20T04:07:22.381Z,1.80
2018-02-20T04:09:50.736Z,1.80
2018-02-20T04:12:19.735Z,2.00
2018-02-20T04:14:48.041Z,2.00
2018-02-20T04:17:16.333Z,2.10
2018-02-20T04:19:44.680Z,2.10
2018-02-20T04:22:12.993Z,1.90
2018-02-20T04:24:41.244Z,1.70
2018-02-20T04:27:09.477Z,1.70
2018-02-20T04:29:37.744Z,1.70
2018-02-20T04:32:06.001Z,1.60
2018-02-20T04:34:34.226Z,1.60
2018-02-20T04:37:02.546Z,1.80
2018-02-20T04:39:30.796Z,1.90
2018-02-20T04:41:59.470Z,1.80
2018-02-20T04:44:28.425Z,1.70
2018-02-20T04:46:56.680Z,1.80
2018-02-20T04:49:24.915Z,1.50
2018-02-20T04:51:53.182Z,1.50
2018-02-20T04:54:21.471Z,1.40
2018-02-20T04:56:49.816Z,1.50
2018-02-20T04:59:18.816Z,1.60
2018-02-20T05:01:50.689Z,1.60
2018-02-20T05:04:18.932Z,1.80
2018-02-20T05:06:47.206Z,1.70
2018-02-20T05:09:15.506Z,1.90
2018-02-20T05:11:43.760Z,1.90
2018-02-20T05:14:12.081Z,1.80
2018-02-20T05:16:40.345Z,1.60
2018-02-20T05:19:08.592Z,1.70
2018-02-20T05:21:37.242Z,1.40
2018-02-20T05:24:05.472Z,1.40
2018-02-20T05:26:33.832Z,1.50
2018-02-20T05:29:02.194Z,1.50
2018-02-20T05:31:30.487Z,1.60
2018-02-20T05:33:59.527Z,1.50
2018-02-20T05:36:28.249Z,1.50
2018-02-20T05:38:56.489Z,1.60
2018-02-20T05:41:24.801Z,1.50
2018-02-20T05:43:53.135Z,1.70
2018-02-20T05:46:21.448Z,1.60
2018-02-20T05:48:49.673Z,1.50
2018-02-20T05:51:17.930Z,1.60
2018-02-20T05:53:47.016Z,1.60
2018-02-20T05:56:16.036Z,1.80
2018-02-20T05:58:44.285Z,1.80
2018-02-20T06:01:12.548Z,1.90
2018-02-20T06:03:40.834Z,1.80
2018-02-20T06:06:10.254Z,1.80
2018-02-20T06:08:39.342Z,1.70
2018-02-20T06:11:08.531Z,1.50
2018-02-20T06:13:37.565Z,1.60
2018-02-20T06:16:05.826Z,1.50
2018-02-20T06:18:34.131Z,1.60
2018-02-20T06:21:02.376Z,1.80
2018-02-20T06:23:30.614Z,1.60
2018-02-20T06:25:58.926Z,1.60
2018-02-20T06:28:27.194Z,1.80
2018-02-20T06:30:56.185Z,1.70
2018-02-20T06:33:25.266Z,1.80
2018-02-20T06:35:53.634Z,1.80
2018-02-20T06:38:22.678Z,1.60
2018-02-20T06:40:51.054Z,1.60
2018-02-20T06:43:19.306Z,1.60
2018-02-20T06:45:48.304Z,1.60
2018-02-20T06:48:17.397Z,1.70
2018-02-20T06:50:45.710Z,1.70
2018-02-20T06:53:13.926Z,1.60
2018-02-20T06:55:42.431Z,1.50
2018-02-20T06:58:10.702Z,1.50
2018-02-20T07:00:39.728Z,1.60
2018-02-20T07:03:08.161Z,1.50
2018-02-20T07:05:37.236Z,1.60
2018-02-20T07:08:05.524Z,1.50
2018-02-20T07:10:35.658Z,1.70
2018-02-20T07:13:04.715Z,1.70
2018-02-20T07:15:32.985Z,1.70
2018-02-20T07:18:01.292Z,1.70
2018-02-20T07:20:30.302Z,1.70
2018-02-20T07:22:58.628Z,1.70
2018-02-20T07:25:26.881Z,1.80
2018-02-20T07:27:55.166Z,1.70
2018-02-20T07:30:23.485Z,1.90
2018-02-20T07:32:51.762Z,1.80
2018-02-20T07:35:20.046Z,1.80
2018-02-20T07:37:48.370Z,1.80
2018-02-20T07:40:16.647Z,1.50
2018-02-20T07:42:44.942Z,1.70
2018-02-20T07:45:13.238Z,1.80
2018-02-20T07:47:42.341Z,1.60
2018-02-20T07:50:10.689Z,1.50
2018-02-20T07:52:38.943Z,2.00
2018-02-20T07:55:07.181Z,1.90
2018-02-20T07:57:36.244Z,2.10
2018-02-20T08:00:04.594Z,2.00
2018-02-20T08:02:32.829Z,1.90
2018-02-20T08:05:02.002Z,2.00
2018-02-20T08:07:30.259Z,2.00
2018-02-20T08:09:58.545Z,2.00
2018-02-20T08:12:26.861Z,2.00
2018-02-20T08:14:55.116Z,2.10
2018-02-20T08:17:23.365Z,2.30
2018-02-20T08:19:51.646Z,2.00
2018-02-20T08:22:19.988Z,2.00
2018-02-20T08:24:48.291Z,2.10
2018-02-20T08:27:16.568Z,2.00
2018-02-20T08:29:44.811Z,2.00
2018-02-20T08:32:13.169Z,1.90
2018-02-20T08:34:42.163Z,2.40
2018-02-20T08:37:10.499Z,2.40
2018-02-20T08:39:38.800Z,2.30
2018-02-20T08:42:07.845Z,2.30
2018-02-20T08:44:36.115Z,2.30
2018-02-20T08:47:04.550Z,2.20
2018-02-20T08:49:33.606Z,2.20
2018-02-20T08:52:01.884Z,2.20
2018-02-20T08:54:30.193Z,2.70
2018-02-20T08:56:58.550Z,2.70
2018-02-20T08:59:26.816Z,2.50
2018-02-20T09:01:55.076Z,2.40
2018-02-20T09:04:23.392Z,2.30
2018-02-20T09:06:51.667Z,2.30
2018-02-20T09:09:20.171Z,2.20
2018-02-20T09:11:48.487Z,2.40
2018-02-20T09:14:16.778Z,2.40
2018-02-20T09:16:45.132Z,2.50
2018-02-20T09:19:13.438Z,2.50
2018-02-20T09:21:41.696Z,2.60
2018-02-20T09:24:10.052Z,2.70
2018-02-20T09:26:38.301Z,2.70
2018-02-20T09:29:07.405Z,2.20
2018-02-20T09:31:36.447Z,2.60
2018-02-20T09:34:04.687Z,2.60
2018-02-20T09:36:33.057Z,2.50
2018-02-20T09:39:01.344Z,2.60
2018-02-20T09:41:29.740Z,2.60
2018-02-20T09:43:58.020Z,2.80
2018-02-20T09:46:26.384Z,2.80
2018-02-20T09:48:54.643Z,2.80
2018-02-20T09:51:23.730Z,2.90
2018-02-20T09:53:52.013Z,2.90
2018-02-20T09:56:20.290Z,2.90
2018-02-20T09:58:48.793Z,3.10
2018-02-20T10:01:17.166Z,3.10
2018-02-20T10:03:45.400Z,3.10
2018-02-20T10:06:14.534Z,3.30
2018-02-20T10:08:42.839Z,3.30
2018-02-20T10:11:11.140Z,3.20
2018-02-20T10:13:40.251Z,3.20
2018-02-20T10:16:09.256Z,3.40
2018-02-20T10:18:37.577Z,3.40
2018-02-20T10:21:05.879Z,3.30
2018-02-20T10:23:34.238Z,3.30
2018-02-20T10:26:02.482Z,3.40
2018-02-20T10:28:30.808Z,3.50
2018-02-20T10:30:59.102Z,3.50
2018-02-20T10:33:27.429Z,3.50
2018-02-20T10:35:55.739Z,3.50
2018-02-20T10:38:24.008Z,3.60
2018-02-20T10:40:53.158Z,3.60
2018-02-20T10:43:21.632Z,3.70
2018-02-20T10:45:49.914Z,3.80
2018-02-20T10:48:18.209Z,3.80
2018-02-20T10:50:46.617Z,3.80
2018-02-20T10:53:14.850Z,3.80
2018-02-20T10:55:43.248Z,4.00
2018-02-20T10:58:11.540Z,4.00
2018-02-20T11:00:39.830Z,4.00
2018-02-20T11:03:08.131Z,4.20
2018-02-20T11:05:36.404Z,4.20
2018-02-20T11:08:05.414Z,4.30
2018-02-20T11:10:33.747Z,4.30
2018-02-20T11:13:02.251Z,4.30
2018-02-20T11:15:30.618Z,4.40
2018-02-20T11:17:58.943Z,4.40
2018-02-20T11:20:27.183Z,4.40
2018-02-20T11:22:55.411Z,4.50
2018-02-20T11:25:23.713Z,4.50
2018-02-20T11:27:52.016Z,4.60
2018-02-20T11:30:20.278Z,4.60
2018-02-20T11:32:48.590Z,4.70
2018-02-20T11:35:16.892Z,4.80
2018-02-20T11:37:45.172Z,4.90
2018-02-20T11:40:13.894Z,4.90
2018-02-20T11:42:43.008Z,5.10
2018-02-20T11:45:11.267Z,5.10
2018-02-20T11:47:40.368Z,5.10
2018-02-20T11:50:09.473Z,5.20
2018-02-20T11:52:37.846Z,5.20
2018-02-20T11:55:06.104Z,5.30
2018-02-20T11:57:35.232Z,5.30
2018-02-20T12:00:03.479Z,5.30
2018-02-20T12:02:31.764Z,5.40
2018-02-20T12:05:00.951Z,5.50
2018-02-20T12:07:30.167Z,5.30
2018-02-20T12:10:07.663Z,5.00
2018-02-20T12:12:37.565Z,5.30
2018-02-20T12:15:08.487Z,5.40
2018-02-20T12:17:36.839Z,5.40
2018-02-20T12:20:05.983Z,5.60
2018-02-20T12:22:35.042Z,5.50
2018-02-20T12:25:03.330Z,5.50
2018-02-20T12:27:31.638Z,5.50
2018-02-20T12:29:59.960Z,5.50
2018-02-20T12:32:28.240Z,5.60
2018-02-20T12:34:56.500Z,5.60
2018-02-20T12:37:24.819Z,5.60
2018-02-20T12:39:53.903Z,5.80
2018-02-20T12:42:22.266Z,5.80
2018-02-20T12:44:50.632Z,5.90
2018-02-20T12:47:18.961Z,6.00
2018-02-20T12:49:48.130Z,5.60
2018-02-20T12:52:16.924Z,5.60
2018-02-20T12:54:45.286Z,6.00
2018-02-20T12:57:13.638Z,6.00
2018-02-20T12:59:41.933Z,6.10
2018-02-20T13:02:10.334Z,6.30
2018-02-20T13:04:39.233Z,6.40
2018-02-20T13:07:07.665Z,6.20
2018-02-20T13:09:36.069Z,6.30
2018-02-20T13:12:04.431Z,7.90
2018-02-20T13:14:32.809Z,6.40
2018-02-20T13:17:01.246Z,6.40
2018-02-20T13:19:29.635Z,6.30
2018-02-20T13:21:58.013Z,6.50
2018-02-20T13:24:26.323Z,6.30
2018-02-20T13:26:54.828Z,6.60
2018-02-20T13:29:23.426Z,6.90
2018-02-20T13:31:51.820Z,7.00
2018-02-20T13:34:20.169Z,6.60
2018-02-20T13:36:48.497Z,6.70
2018-02-20T13:39:16.849Z,7.10
2018-02-20T13:41:45.282Z,6.90
2018-02-20T13:44:13.583Z,7.00
2018-02-20T13:46:42.046Z,7.10
2018-02-20T13:49:11.088Z,7.30
2018-02-20T13:51:39.411Z,7.30
2018-02-20T13:54:08.864Z,7.20
2018-02-20T13:56:37.428Z,7.20
2018-02-20T13:59:06.673Z,7.10
2018-02-20T14:01:35.410Z,7.10
2018-02-20T14:04:04.024Z,7.30
2018-02-20T14:06:32.505Z,7.40
2018-02-20T14:09:00.846Z,7.50
2018-02-20T14:11:29.881Z,7.50
2018-02-20T14:13:58.343Z,7.50
2018-02-20T14:16:26.906Z,7.50
2018-02-20T14:18:55.953Z,7.60
2018-02-20T14:21:24.341Z,7.60
2018-02-20T14:23:52.737Z,7.60
2018-02-20T14:26:21.393Z,7.60
2018-02-20T14:28:50.017Z,7.60
2018-02-20T14:31:18.395Z,7.70
2018-02-20T14:33:47.440Z,7.60
2018-02-20T14:36:15.927Z,7.50
2018-02-20T14:38:44.327Z,7.70
2018-02-20T14:41:12.602Z,7.80
2018-02-20T14:43:41.209Z,7.80
2018-02-20T14:46:10.463Z,7.70
2018-02-20T14:48:39.836Z,7.70
2018-02-20T14:51:08.862Z,7.80
2018-02-20T14:53:37.220Z,7.80
2018-02-20T14:56:05.986Z,7.90
2018-02-20T14:58:34.376Z,7.90
2018-02-20T15:01:03.557Z,8.00
2018-02-20T15:03:32.036Z,8.00
2018-02-20T15:06:00.492Z,8.10
2018-02-20T15:08:29.107Z,8.10
2018-02-20T15:10:58.450Z,8.10
2018-02-20T15:13:27.191Z,8.10
2018-02-20T15:15:55.698Z,8.10
2018-02-20T15:18:25.586Z,8.00
2018-02-20T15:20:54.060Z,7.90
2018-02-20T15:23:22.618Z,8.00
2018-02-20T15:25:51.513Z,7.90
2018-02-20T15:28:20.966Z,8.40
2018-02-20T15:30:49.885Z,8.30
2018-02-20T15:33:18.174Z,8.20
2018-02-20T15:35:46.504Z,8.00
2018-02-20T15:38:15.617Z,7.60
2018-02-20T15:40:44.797Z,7.80
2018-02-20T15:43:13.144Z,7.80
2018-02-20T15:45:41.621Z,7.70
2018-02-20T15:48:09.950Z,7.50
2018-02-20T15:50:38.427Z,7.50
2018-02-20T15:53:06.887Z,7.70
2018-02-20T15:55:35.249Z,7.60
2018-02-20T15:58:04.698Z,7.50
2018-02-20T16:00:33.198Z,7.50
2018-02-20T16:03:01.681Z,7.30
2018-02-20T16:05:30.829Z,7.50
2018-02-20T16:07:59.279Z,7.50
2018-02-20T16:10:27.783Z,7.40
2018-02-20T16:12:57.687Z,7.40
2018-02-20T16:15:26.856Z,7.30
2018-02-20T16:17:55.327Z,7.20
2018-02-20T16:20:23.763Z,7.20
2018-02-20T16:22:52.396Z,7.20
2018-02-20T16:25:21.748Z,7.10
2018-02-20T16:27:50.839Z,7.00
2018-02-20T16:30:19.476Z,6.90
2018-02-20T16:32:47.798Z,7.00
2018-02-20T16:35:16.057Z,7.00
2018-02-20T16:37:44.871Z,6.80
2018-02-20T16:40:13.545Z,6.80
2018-02-20T16:42:42.653Z,6.60
2018-02-20T16:45:11.146Z,6.60
2018-02-20T16:47:39.752Z,6.60
2018-02-20T16:50:08.082Z,6.50
2018-02-20T16:52:37.390Z,6.50
2018-02-20T16:55:05.883Z,6.50
2018-02-20T16:57:34.150Z,6.50
2018-02-20T17:00:02.541Z,6.40
2018-02-20T17:02:30.887Z,6.30
2018-02-20T17:05:06.012Z,6.30
2018-02-20T17:07:35.042Z,6.30
2018-02-20T17:10:03.378Z,6.30
2018-02-20T17:12:31.850Z,6.10
2018-02-20T17:15:01.087Z,6.10
2018-02-20T17:17:29.459Z,6.10
2018-02-20T17:19:57.964Z,6.10
2018-02-20T17:22:26.297Z,5.90
2018-02-20T17:24:54.606Z,5.60
2018-02-20T17:27:23.685Z,5.90
2018-02-20T17:29:52.845Z,5.90
2018-02-20T17:32:21.182Z,5.90
2018-02-20T17:34:49.646Z,5.80
2018-02-20T17:37:17.942Z,5.80
2018-02-20T17:39:46.247Z,6.00
2018-02-20T17:42:16.737Z,6.00
2018-02-20T17:44:45.042Z,6.10
2018-02-20T17:47:13.283Z,5.90
2018-02-20T17:49:41.570Z,6.10
2018-02-20T17:52:09.799Z,5.90
2018-02-20T17:54:38.068Z,5.80
2018-02-20T17:57:06.346Z,5.80
2018-02-20T17:59:34.619Z,5.80
2018-02-20T18:02:03.179Z,5.70
2018-02-20T18:04:31.492Z,5.50
2018-02-20T18:07:00.528Z,5.30
2018-02-20T18:09:28.752Z,5.30
2018-02-20T18:11:57.103Z,5.20
2018-02-20T18:14:28.298Z,4.80
2018-02-20T18:16:56.635Z,4.40
2018-02-20T18:19:24.932Z,4.40
2018-02-20T18:21:53.199Z,4.40
2018-02-20T18:24:21.464Z,4.70
2018-02-20T18:26:49.758Z,4.50
2018-02-20T18:29:18.014Z,4.50
2018-02-20T18:31:46.252Z,4.00
2018-02-20T18:34:14.576Z,3.80
2018-02-20T18:36:42.888Z,3.40
2018-02-20T18:39:11.157Z,3.40
2018-02-20T18:41:40.209Z,4.00
2018-02-20T18:44:08.456Z,4.00
2018-02-20T18:46:36.757Z,4.20
2018-02-20T18:49:06.867Z,3.90
2018-02-20T18:51:36.653Z,4.00
2018-02-20T18:54:04.974Z,4.00
2018-02-20T18:56:33.210Z,3.70
2018-02-20T18:59:01.523Z,3.60
2018-02-20T19:01:29.800Z,3.10
2018-02-20T19:03:58.050Z,3.20
2018-02-20T19:06:26.380Z,3.30
2018-02-20T19:08:54.626Z,3.10
2018-02-20T19:11:23.738Z,3.10
2018-02-20T19:13:52.944Z,3.70
2018-02-20T19:16:21.214Z,3.60
2018-02-20T19:18:49.486Z,3.40
2018-02-20T19:21:17.868Z,3.10
2018-02-20T19:23:46.123Z,2.90
2018-02-20T19:26:14.438Z,2.70
2018-02-20T19:28:43.550Z,2.50
2018-02-20T19:31:11.897Z,2.50
2018-02-20T19:33:40.197Z,2.00
2018-02-20T19:36:09.313Z,2.00
2018-02-20T19:38:37.698Z,2.00
2018-02-20T19:41:06.004Z,2.10
2018-02-20T19:43:35.606Z,2.00
2018-02-20T19:46:03.887Z,1.80
2018-02-20T19:48:32.133Z,1.70
2018-02-20T19:51:01.438Z,1.40
2018-02-20T19:53:29.747Z,1.40
2018-02-20T19:55:58.007Z,1.20
2018-02-20T19:58:26.327Z,1.00
2018-02-20T20:00:55.502Z,0.90
2018-02-20T20:03:23.793Z,0.80
2018-02-20T20:05:52.922Z,0.90
2018-02-20T20:08:21.211Z,0.90
2018-02-20T20:10:49.494Z,0.80
2018-02-20T20:13:18.566Z,0.60
2018-02-20T20:15:46.803Z,0.60
2018-02-20T20:18:15.046Z,0.60
2018-02-20T20:20:47.937Z,0.60
2018-02-20T20:23:11.662Z,0.50
2018-02-20T20:25:39.935Z,0.50
2018-02-20T20:28:08.456Z,0.30
2018-02-20T20:30:36.789Z,0.30
2018-02-20T20:33:05.834Z,0.30
2018-02-20T20:35:34.196Z,0.30
2018-02-20T20:38:02.481Z,0.20
2018-02-20T20:40:31.514Z,0.10
2018-02-20T20:43:00.594Z,0.20
2018-02-20T20:45:28.905Z,0.20
2018-02-20T20:47:57.149Z,0.60
2018-02-20T20:50:25.428Z,0.30
2018-02-20T20:52:53.738Z,0.50
2018-02-20T20:55:22.072Z,0.40
2018-02-20T20:57:50.392Z,0.50
2018-02-20T21:00:18.681Z,0.40
2018-02-20T21:02:46.941Z,0.30
2018-02-20T21:05:15.365Z,0.10
2018-02-20T21:07:43.713Z,0.10
2018-02-20T21:10:11.967Z,0.60
2018-02-20T21:12:40.956Z,0.60
2018-02-20T21:15:10.033Z,0.40
2018-02-20T21:17:39.071Z,0.30
2018-02-20T21:20:07.337Z,0.30
2018-02-20T21:22:35.602Z,-0.10
2018-02-20T21:25:03.876Z,-0.20
2018-02-20T21:27:32.254Z,-0.30
2018-02-20T21:30:00.544Z,-0.20
2018-02-20T21:32:29.018Z,-0.10
2018-02-20T21:34:57.471Z,-0.20
2018-02-20T21:37:25.909Z,-0.30
2018-02-20T21:39:54.248Z,-0.40
2018-02-20T21:42:22.563Z,0.00
2018-02-20T21:44:50.922Z,0.40
2018-02-20T21:47:19.206Z,0.60
2018-02-20T21:49:47.466Z,1.00
2018-02-20T21:52:15.757Z,1.00
2018-02-20T21:54:43.998Z,0.50
2018-02-20T21:57:13.099Z,0.70
2018-02-20T21:59:41.507Z,0.70
2018-02-20T22:02:09.802Z,0.60
2018-02-20T22:04:39.002Z,1.20
2018-02-20T22:07:07.254Z,1.20
2018-02-20T22:09:35.532Z,1.00
2018-02-20T22:12:03.823Z,1.00
2018-02-20T22:14:32.078Z,0.70
2018-02-20T22:17:00.488Z,0.30
2018-02-20T22:19:28.763Z,0.30
2018-02-20T22:21:57.013Z,0.60
2018-02-20T22:24:25.299Z,0.70
2018-02-20T22:26:53.541Z,0.60
2018-02-20T22:29:21.908Z,0.30
2018-02-20T22:31:50.924Z,0.40
2018-02-20T22:34:19.220Z,0.40
2018-02-20T22:36:47.527Z,0.40
2018-02-20T22:39:15.777Z,0.00
2018-02-20T22:41:44.117Z,0.00
2018-02-20T22:44:12.456Z,0.40
2018-02-20T22:46:40.769Z,0.60
2018-02-20T22:49:09.008Z,0.80
2018-02-20T22:51:37.257Z,1.20
2018-02-20T22:54:05.564Z,1.10
2018-02-20T22:56:33.882Z,1.20
2018-02-20T22:59:02.159Z,1.20
2018-02-20T23:01:30.668Z,1.30
2018-02-20T23:03:58.918Z,1.00
2018-02-20T23:06:27.180Z,0.40
2018-02-20T23:08:55.462Z,0.70
2018-02-20T23:11:41.585Z,0.60
2018-02-20T23:14:09.890Z,0.90
2018-02-20T23:16:38.909Z,1.30
2018-02-20T23:19:08.010Z,1.20
2018-02-20T23:21:37.067Z,1.50
2018-02-20T23:24:05.340Z,1.50
2018-02-20T23:26:33.946Z,1.60
2018-02-20T23:29:02.300Z,1.70
2018-02-20T23:31:30.588Z,1.80
2018-02-20T23:33:58.945Z,1.70
2018-02-20T23:36:27.237Z,1.80
2018-02-20T23:38:55.501Z,1.80
2018-02-20T23:41:23.721Z,1.90
2018-02-20T23:43:52.000Z,1.60
2018-02-20T23:46:20.272Z,1.80
2018-02-20T23:48:49.808Z,1.80
2018-02-20T23:51:23.808Z,1.80
2018-02-20T23:53:52.087Z,1.90
2018-02-20T23:56:20.361Z,2.10
2018-02-20T23:58:49.306Z,1.90
